Time;durP1;ratioP1;P1;durP2;ratioP2;P2;SDS_P1;SDS_P2;PMS_P1;PMS_P2;Temp;Humidity;BMP_temperature;BMP_pressure;BME280_temperature;BME280_humidity;BME280_pressure;Samples;Min_cycle;Max_cycle;Signal;HPM_P1;HPM_P2
2021/06/23 03:36:50;;;;;;;0.20;0.10;;;;;;;24.34;72.12;100640.25;5052447;27;2129280;-68
2021/06/23 03:39:16;;;;;;;0.03;0.03;;;;;;;24.39;73.19;100639.94;5080812;27;20096;-71
2021/06/23 03:41:55;;;;;;;0.08;0.00;;;;;;;24.49;73.09;100630.28;5099217;27;20894;-71
2021/06/23 03:44:23;;;;;;;0.10;0.05;;;;;;;24.70;72.80;100643.38;5133431;27;20047;-69
2021/06/23 03:46:52;;;;;;;0.03;0.00;;;;;;;24.82;72.51;100639.00;5100008;28;20048;-70
2021/06/23 03:49:18;;;;;;;0.00;0.00;;;;;;;24.93;71.94;100641.91;5075240;28;20043;-69
2021/06/23 03:51:46;;;;;;;0.10;0.00;;;;;;;25.02;71.63;100635.88;5093829;28;20039;-71
2021/06/23 03:54:15;;;;;;;0.00;0.00;;;;;;;25.09;71.30;100637.22;5109948;28;20113;-72
2021/06/23 03:56:46;;;;;;;0.10;0.10;;;;;;;25.13;70.92;100627.91;5092389;28;20063;-71
2021/06/23 03:59:14;;;;;;;0.00;0.00;;;;;;;25.31;70.97;100641.16;5087953;27;20562;-71
2021/06/23 04:01:40;;;;;;;0.08;0.00;;;;;;;25.30;70.49;100630.38;5113650;28;20079;-69
2021/06/23 04:04:11;;;;;;;0.10;0.00;;;;;;;25.46;70.49;100647.41;5120778;28;20118;-71
2021/06/23 04:06:41;;;;;;;0.05;0.00;;;;;;;25.54;69.90;100645.03;5113886;28;20427;-72
2021/06/23 04:09:09;;;;;;;0.15;0.00;;;;;;;25.64;69.31;100638.88;5123021;28;20083;-70
2021/06/23 04:11:40;;;;;;;0.05;0.03;;;;;;;25.65;68.40;100647.91;5117545;27;20427;-70
2021/06/23 04:14:06;;;;;;;0.20;0.08;;;;;;;25.69;67.63;100644.88;5075423;28;20555;-71
2021/06/23 04:16:32;;;;;;;0.10;0.00;;;;;;;25.63;67.67;100628.13;5110070;28;20048;-71
2021/06/23 04:18:59;;;;;;;0.15;0.10;;;;;;;25.54;67.90;100618.75;5111438;28;20054;-71
2021/06/23 04:21:26;;;;;;;0.10;0.10;;;;;;;25.83;67.90;100646.66;5092272;28;20039;-72
2021/06/23 04:23:58;;;;;;;0.10;0.00;;;;;;;25.79;67.98;100632.41;5112324;28;20052;-70
2021/06/23 04:26:24;;;;;;;0.10;0.03;;;;;;;25.88;67.26;100639.06;5112149;28;20096;-70
2021/06/23 04:28:50;;;;;;;0.10;0.00;;;;;;;25.93;67.42;100632.34;5106039;28;20040;-70
2021/06/23 04:31:16;;;;;;;0.00;0.00;;;;;;;26.19;67.03;100648.69;5096596;28;20036;-75
2021/06/23 04:33:46;;;;;;;0.47;0.10;;;;;;;26.30;66.83;100644.25;5076738;28;20120;-75
2021/06/23 04:36:13;;;;;;;0.00;0.00;;;;;;;26.39;66.85;100640.00;5079810;28;20055;-72
2021/06/23 04:38:40;;;;;;;0.00;0.00;;;;;;;26.50;66.59;100645.56;5109327;28;20063;-72
2021/06/23 04:41:08;;;;;;;0.17;0.00;;;;;;;26.57;66.24;100642.28;5092115;28;20495;-71
2021/06/23 04:43:38;;;;;;;0.10;0.00;;;;;;;26.67;65.45;100642.53;5101347;28;20122;-70
2021/06/23 04:46:05;;;;;;;0.10;0.00;;;;;;;26.76;64.74;100634.56;5107609;28;20036;-71
2021/06/23 04:48:33;;;;;;;0.10;0.00;;;;;;;26.69;64.84;100613.38;5098854;28;20100;-72
2021/06/23 04:51:00;;;;;;;0.10;0.00;;;;;;;26.93;65.10;100647.81;5078399;28;20093;-71
2021/06/23 04:53:30;;;;;;;0.15;0.00;;;;;;;27.02;63.77;100649.88;5092186;28;20451;-70
2021/06/23 04:55:58;;;;;;;0.00;0.00;;;;;;;27.13;63.16;100649.94;5098284;28;20138;-71
2021/06/23 04:58:31;;;;;;;0.00;0.00;;;;;;;27.20;63.58;100644.91;5081288;28;20075;-73
2021/06/23 05:01:04;;;;;;;0.00;0.00;;;;;;;27.31;62.70;100648.63;5067636;28;20559;-72
2021/06/23 05:03:40;;;;;;;0.08;0.05;;;;;;;27.35;62.53;100650.13;5066788;28;20523;-72
2021/06/23 05:06:06;;;;;;;0.10;0.00;;;;;;;27.45;61.79;100651.16;5094812;28;20044;-68
2021/06/23 05:08:32;;;;;;;0.00;0.00;;;;;;;27.56;59.59;100650.38;5105545;27;20748;-69
2021/06/23 05:10:58;;;;;;;0.10;0.00;;;;;;;27.59;58.81;100640.09;5104935;27;20043;-75
2021/06/23 05:13:26;;;;;;;0.00;0.00;;;;;;;27.71;59.98;100647.34;5084623;27;20144;-66
2021/06/23 05:15:54;;;;;;;0.03;0.00;;;;;;;27.70;60.73;100655.63;5120775;27;20078;-71
2021/06/23 05:18:20;;;;;;;0.05;0.00;;;;;;;27.84;61.74;100656.34;5089464;28;20043;-76
2021/06/23 05:20:47;;;;;;;0.10;0.00;;;;;;;27.94;60.08;100661.97;5063535;27;20058;-69
2021/06/23 05:23:13;;;;;;;0.10;0.00;;;;;;;27.96;60.47;100669.03;5095128;27;20094;-80
2021/06/23 05:25:39;;;;;;;0.00;0.00;;;;;;;27.92;61.72;100651.16;5079223;27;20031;-74
2021/06/23 05:28:05;;;;;;;0.00;0.00;;;;;;;28.00;61.58;100659.63;5115191;27;20112;-70
2021/06/23 05:30:33;;;;;;;0.00;0.00;;;;;;;27.93;60.33;100638.41;5076858;27;20048;-73
2021/06/23 05:33:00;;;;;;;0.00;0.00;;;;;;;28.05;60.70;100651.94;5093839;27;20040;-70
2021/06/23 05:37:53;;;;;;;0.10;0.08;;;;;;;28.23;59.64;100655.09;5088493;27;20258;-75
2021/06/23 05:40:20;;;;;;;0.20;0.08;;;;;;;28.26;60.16;100658.47;5065209;28;20127;-72
2021/06/23 05:42:46;;;;;;;0.10;0.05;;;;;;;28.31;59.31;100647.16;5051989;28;20040;-75
2021/06/23 05:45:12;;;;;;;0.10;0.00;;;;;;;28.44;58.60;100651.56;5070832;28;20062;-70
2021/06/23 05:47:38;;;;;;;0.10;0.00;;;;;;;28.61;57.16;100651.13;5069429;28;20478;-75
2021/06/23 05:50:04;;;;;;;0.00;0.00;;;;;;;28.72;56.29;100648.38;5066736;28;20056;-76
2021/06/23 05:52:31;;;;;;;0.00;0.00;;;;;;;28.82;55.00;100648.50;5086069;28;20086;-76
2021/06/23 05:54:59;;;;;;;0.00;0.00;;;;;;;28.88;53.46;100639.81;5071646;28;20068;-75
2021/06/23 05:57:25;;;;;;;0.10;0.00;;;;;;;28.95;53.39;100641.91;5056848;28;20048;-74
2021/06/23 05:59:51;;;;;;;0.05;0.00;;;;;;;29.04;53.63;100648.53;5084739;28;20067;-78
2021/06/23 06:02:17;;;;;;;0.05;0.00;;;;;;;29.07;54.66;100640.94;5090283;28;20415;-72
2021/06/23 06:04:43;;;;;;;0.05;0.00;;;;;;;29.11;54.45;100650.63;5089865;28;20048;-73
2021/06/23 06:07:09;;;;;;;0.00;0.00;;;;;;;29.15;51.94;100646.63;5033370;28;20043;-75
2021/06/23 06:09:36;;;;;;;0.00;0.00;;;;;;;29.23;51.45;100649.59;5084410;28;20479;-73
2021/06/23 06:12:02;;;;;;;0.20;0.00;;;;;;;29.18;50.16;100619.06;5064584;28;20088;-70
2021/06/23 06:14:28;;;;;;;0.00;0.00;;;;;;;29.42;51.21;100654.41;5090674;28;20044;-76
2021/06/23 06:16:55;;;;;;;0.00;0.00;;;;;;;29.49;51.45;100656.50;5071328;28;20062;-73
2021/06/23 06:19:22;;;;;;;0.00;0.00;;;;;;;29.40;53.08;100638.13;5068732;28;20044;-70
2021/06/23 06:21:48;;;;;;;0.00;0.00;;;;;;;29.55;51.01;100660.59;5067419;28;20200;-71
2021/06/23 06:24:14;;;;;;;0.00;0.00;;;;;;;29.56;51.37;100640.47;5066951;28;20162;-70
2021/06/23 06:26:39;;;;;;;0.10;0.00;;;;;;;29.65;49.27;100658.00;5038274;28;20055;-69
2021/06/23 06:29:05;;;;;;;0.00;0.00;;;;;;;29.73;48.16;100645.38;5057235;28;20051;-72
2021/06/23 06:31:32;;;;;;;0.22;0.00;;;;;;;29.85;48.03;100652.53;5072213;28;20388;-68
2021/06/23 06:33:58;;;;;;;0.00;0.00;;;;;;;29.97;46.06;100642.44;5072373;28;20043;-71
2021/06/23 06:36:24;;;;;;;0.00;0.00;;;;;;;30.04;44.99;100646.34;5077292;28;20198;-71
2021/06/23 06:38:53;;;;;;;0.00;0.00;;;;;;;30.12;47.36;100655.66;5090010;28;20092;-70
2021/06/23 06:41:19;;;;;;;0.00;0.00;;;;;;;30.19;47.19;100648.69;5053554;28;20504;-70
2021/06/23 06:43:45;;;;;;;0.10;0.00;;;;;;;30.33;46.04;100655.69;5070348;28;20147;-71
2021/06/23 06:46:12;;;;;;;0.00;0.00;;;;;;;30.39;43.01;100646.94;5090241;28;20043;-73
2021/06/23 06:48:39;;;;;;;0.00;0.00;;;;;;;30.48;40.69;100652.47;5063184;28;20062;-69
2021/06/23 06:51:05;;;;;;;0.00;0.00;;;;;;;30.63;40.15;100651.13;5071167;28;20067;-72
2021/06/23 06:53:31;;;;;;;0.00;0.00;;;;;;;30.70;40.81;100648.72;5058853;28;20059;-72
2021/06/23 06:55:57;;;;;;;0.00;0.00;;;;;;;30.84;40.08;100659.34;5075874;28;20100;-72
2021/06/23 06:58:23;;;;;;;0.00;0.00;;;;;;;30.88;41.14;100664.38;5075110;28;20048;-75
2021/06/23 07:00:49;;;;;;;0.10;0.00;;;;;;;30.94;40.56;100663.84;5074829;28;20124;-72
2021/06/23 07:03:15;;;;;;;0.03;0.00;;;;;;;31.01;40.95;100651.31;5072567;28;20106;-71
2021/06/23 07:05:41;;;;;;;0.00;0.00;;;;;;;31.16;38.98;100663.63;5072143;28;20054;-72
2021/06/23 07:08:08;;;;;;;0.10;0.00;;;;;;;31.34;36.39;100661.13;5074665;28;20505;-75
2021/06/23 07:10:36;;;;;;;0.00;0.00;;;;;;;31.48;34.52;100655.25;5069726;28;20043;-75
2021/06/23 07:13:04;;;;;;;0.00;0.00;;;;;;;31.59;33.39;100647.75;5075713;28;20036;-76
2021/06/23 07:15:30;;;;;;;0.00;0.00;;;;;;;31.84;33.36;100663.66;5069507;28;20519;-75
2021/06/23 07:17:57;;;;;;;0.00;0.00;;;;;;;32.04;32.31;100664.56;5073170;28;20039;-75
2021/06/23 07:20:23;;;;;;;0.10;0.00;;;;;;;32.30;30.08;100660.22;5072620;28;20059;-73
2021/06/23 07:22:49;;;;;;;0.00;0.00;;;;;;;32.59;30.15;100664.63;5055243;28;20055;-74
2021/06/23 07:25:15;;;;;;;0.00;0.00;;;;;;;32.83;29.83;100659.50;5065650;28;20059;-75
2021/06/23 07:27:42;;;;;;;0.10;0.00;;;;;;;33.30;30.33;100676.78;5071454;28;20055;-77
2021/06/23 07:30:12;;;;;;;0.00;0.00;;;;;;;33.51;29.71;100671.94;5068154;28;20048;-77
2021/06/23 07:32:48;;;;;;;0.00;0.00;;;;;;;33.80;29.03;100672.59;5075818;28;20041;-77
2021/06/23 07:38:02;;;;;;;0.00;0.00;;;;;;;34.25;27.44;100675.31;5048377;28;20517;-73
2021/06/23 07:43:13;;;;;;;0.00;0.00;;;;;;;34.82;27.68;100677.50;5053473;28;20044;-76
2021/06/23 07:45:51;;;;;;;0.00;0.00;;;;;;;35.16;26.85;100670.94;5000579;28;20056;-79
2021/06/23 07:48:21;;;;;;;0.00;0.00;;;;;;;35.40;26.47;100676.59;5056522;28;20048;-76
2021/06/23 07:50:53;;;;;;;0.00;0.00;;;;;;;35.60;25.22;100686.31;5053509;28;20072;-74
2021/06/23 07:53:23;;;;;;;;;;;;;;;35.64;25.55;100678.59;5030173;28;20049;-73
2021/06/23 07:56:09;;;;;;;0.00;0.00;;;;;;;35.87;25.17;100683.31;5034769;28;19949;-81
2021/06/23 08:09:43;;;;;;;0.10;0.00;;;;;;;36.95;23.72;100686.63;5045929;28;20163;-76
2021/06/23 08:14:39;;;;;;;0.00;0.00;;;;;;;37.11;23.50;100681.06;5055149;28;20054;-76
2021/06/23 08:17:09;;;;;;;0.00;0.00;;;;;;;37.88;22.82;100699.59;5031941;28;20098;-76
2021/06/23 08:19:36;;;;;;;0.05;0.00;;;;;;;38.69;21.98;100695.16;5053660;28;20056;-74
2021/06/23 08:22:03;;;;;;;0.10;0.10;;;;;;;39.42;21.25;100688.66;5014264;28;20579;-77
2021/06/23 08:24:30;;;;;;;0.00;0.00;;;;;;;40.58;20.77;100703.25;5037312;28;20048;-74
2021/06/23 08:26:56;;;;;;;0.00;0.00;;;;;;;40.56;20.30;100713.72;5049053;28;20048;-75
2021/06/23 08:29:22;;;;;;;0.00;0.00;;;;;;;41.39;19.79;100718.22;5016205;28;20045;-74
2021/06/23 08:31:48;;;;;;;0.03;0.03;;;;;;;40.88;19.32;100702.88;4998209;28;20052;-77
2021/06/23 08:34:14;;;;;;;0.00;0.00;;;;;;;42.17;18.63;100717.75;5034341;28;20463;-74
2021/06/23 08:36:40;;;;;;;0.00;0.00;;;;;;;40.62;19.98;100704.59;5039383;28;20527;-77
2021/06/23 08:39:06;;;;;;;0.00;0.00;;;;;;;39.59;21.19;100705.97;5068557;28;20051;-74
2021/06/23 08:41:35;;;;;;;0.10;0.10;;;;;;;38.91;22.70;100714.56;5069336;28;20062;-76
2021/06/23 08:44:04;;;;;;;0.20;0.10;;;;;;;40.45;20.86;100689.22;5053872;28;20044;-73
2021/06/23 08:46:30;;;;;;;0.00;0.00;;;;;;;41.02;19.73;100710.31;5053105;28;20547;-74
2021/06/23 08:48:59;;;;;;;0.05;0.05;;;;;;;41.82;19.12;100691.88;5073987;28;20041;-76
2021/06/23 08:51:26;;;;;;;0.00;0.00;;;;;;;42.48;18.88;100706.88;5069492;28;20079;-76
2021/06/23 08:53:53;;;;;;;0.10;0.10;;;;;;;43.28;17.53;100708.38;5067025;28;20048;-76
2021/06/23 08:56:19;;;;;;;0.10;0.10;;;;;;;41.01;20.22;100716.03;5062614;28;20048;-75
2021/06/23 08:58:46;;;;;;;0.10;0.10;;;;;;;40.66;20.31;100701.22;5055248;28;20103;-73
2021/06/23 09:01:12;;;;;;;0.10;0.10;;;;;;;42.51;18.51;100703.66;5055764;28;20041;-72
2021/06/23 09:04:08;;;;;;;0.10;0.10;;;;;;;40.74;20.37;100705.75;5035585;28;20032;-76
2021/06/23 09:06:52;;;;;;;0.10;0.10;;;;;;;42.89;18.41;100699.16;4979650;28;20177;-75
2021/06/23 09:09:22;;;;;;;0.20;0.20;;;;;;;42.94;17.89;100704.97;4962526;28;20132;-76
2021/06/23 09:11:50;;;;;;;0.10;0.10;;;;;;;42.62;18.15;100711.38;4970644;28;20146;-73
2021/06/23 09:14:18;;;;;;;0.10;0.10;;;;;;;44.08;17.27;100712.59;4975542;28;20046;-74
2021/06/23 09:17:07;;;;;;;0.13;0.13;;;;;;;44.82;16.37;100707.97;4974850;28;20320;-74
2021/06/23 09:19:48;;;;;;;0.10;0.10;;;;;;;44.91;16.58;100704.66;4949897;28;20204;-72
2021/06/23 09:22:37;;;;;;;0.10;0.10;;;;;;;41.52;19.12;100700.78;4974491;28;20132;-77
2021/06/23 09:25:12;;;;;;;0.10;0.10;;;;;;;41.23;19.47;100696.28;4964505;28;20066;-75
2021/06/23 09:27:52;;;;;;;0.20;0.20;;;;;;;41.33;19.67;100690.34;4975170;28;20133;-77
2021/06/23 09:30:28;;;;;;;0.20;0.20;;;;;;;41.86;18.79;100692.34;4990305;28;20517;-70
2021/06/23 09:33:05;;;;;;;0.20;0.20;;;;;;;44.47;16.50;100701.13;4987107;28;20060;-71
2021/06/23 09:35:31;;;;;;;0.20;0.20;;;;;;;45.08;15.90;100707.75;4974264;28;20544;-74
2021/06/23 09:37:57;;;;;;;0.20;0.20;;;;;;;44.78;15.92;100684.31;4961465;28;20082;-71
2021/06/23 09:40:24;;;;;;;0.10;0.10;;;;;;;46.42;14.84;100697.00;4966052;28;20054;-73
2021/06/23 09:43:00;;;;;;;0.10;0.10;;;;;;;44.94;15.70;100689.34;4994958;28;20087;-73
2021/06/23 09:45:27;;;;;;;0.10;0.10;;;;;;;46.30;15.06;100686.81;5067667;28;20068;-75
2021/06/23 09:48:03;;;;;;;0.13;0.13;;;;;;;44.77;16.12;100689.06;5068808;28;20075;-74
2021/06/23 09:50:31;;;;;;;0.10;0.10;;;;;;;41.73;19.11;100689.50;5052742;28;20069;-77
2021/06/23 09:53:19;;;;;;;0.17;0.17;;;;;;;41.07;20.18;100687.41;5066385;28;20045;-72
2021/06/23 09:55:47;;;;;;;0.10;0.10;;;;;;;41.10;20.44;100673.06;5052524;28;20579;-78
2021/06/23 09:58:24;;;;;;;0.63;0.20;;;;;;;41.86;19.12;100675.63;5044400;28;20045;-75
2021/06/23 10:01:11;;;;;;;0.20;0.20;;;;;;;43.24;17.82;100679.16;5050782;28;20044;-74
2021/06/23 10:03:56;;;;;;;0.10;0.10;;;;;;;44.09;17.40;100677.94;5024640;28;20193;-74
2021/06/23 10:06:30;;;;;;;0.20;0.20;;;;;;;45.58;16.11;100668.16;5061794;28;20075;-75
2021/06/23 10:09:12;;;;;;;0.10;0.10;;;;;;;43.06;16.94;100670.59;5071975;28;20067;-75
2021/06/23 10:11:38;;;;;;;0.00;0.00;;;;;;;41.23;18.89;100660.09;5062531;28;20139;-73
2021/06/23 10:14:06;;;;;;;0.10;0.10;;;;;;;42.45;17.84;100641.19;5065675;28;20049;-73
2021/06/23 10:16:33;;;;;;;0.10;0.10;;;;;;;41.55;18.89;100670.56;5064714;28;20124;-70
2021/06/23 10:18:59;;;;;;;0.10;0.10;;;;;;;41.54;19.02;100660.50;5059978;28;20059;-72
2021/06/23 10:21:30;;;;;;;0.10;0.10;;;;;;;40.71;19.66;100654.16;5062348;28;20086;-74
2021/06/23 10:24:00;;;;;;;0.10;0.10;;;;;;;41.64;19.38;100663.72;5029182;28;20037;-77
2021/06/23 10:26:30;;;;;;;0.08;0.08;;;;;;;40.96;19.22;100658.19;5058964;28;20053;-72
2021/06/23 10:28:57;;;;;;;0.10;0.10;;;;;;;43.39;17.01;100662.13;5064743;28;20136;-75
2021/06/23 10:31:27;;;;;;;0.10;0.10;;;;;;;42.11;17.83;100658.09;5060151;28;20051;-73
2021/06/23 10:33:54;;;;;;;0.00;0.00;;;;;;;42.90;17.09;100659.84;5073965;28;20063;-72
2021/06/23 10:36:24;;;;;;;0.10;0.10;;;;;;;43.95;16.87;100660.38;5070290;28;20114;-76
2021/06/23 10:38:51;;;;;;;0.10;0.10;;;;;;;41.60;18.56;100658.78;5071268;28;20040;-77
2021/06/23 10:41:21;;;;;;;0.00;0.00;;;;;;;40.60;19.62;100599.06;5071825;28;20044;-72
2021/06/23 10:44:15;;;;;;;0.00;0.00;;;;;;;40.92;19.39;100651.31;5073491;28;20051;-74
2021/06/23 10:46:42;;;;;;;0.00;0.00;;;;;;;41.59;18.57;100651.47;5074641;28;20421;-69
2021/06/23 10:49:10;;;;;;;0.00;0.00;;;;;;;42.13;18.06;100635.56;5071953;28;20137;-71
2021/06/23 10:51:37;;;;;;;0.00;0.00;;;;;;;42.46;18.30;100644.84;5070888;28;20048;-66
2021/06/23 10:54:31;;;;;;;0.00;0.00;;;;;;;42.72;17.99;100645.72;5069298;28;20061;-73
2021/06/23 10:56:57;;;;;;;0.00;0.00;;;;;;;44.02;16.71;100636.03;5054368;28;20106;-71
2021/06/23 10:59:33;;;;;;;0.00;0.00;;;;;;;41.87;18.55;100647.53;5074874;28;20406;-72
2021/06/23 11:02:09;;;;;;;0.00;0.00;;;;;;;41.37;18.96;100639.59;5046318;28;20053;-72
2021/06/23 11:04:57;;;;;;;0.05;0.00;;;;;;;44.13;16.15;100640.03;5074489;28;20062;-74
2021/06/23 11:07:49;;;;;;;0.00;0.00;;;;;;;44.30;16.50;100641.22;5062153;28;20081;-70
2021/06/23 11:10:26;;;;;;;0.10;0.00;;;;;;;44.74;15.84;100641.06;5052911;28;20230;-74
2021/06/23 11:13:04;;;;;;;0.00;0.00;;;;;;;43.58;16.73;100635.19;5045974;28;20055;-77
2021/06/23 11:15:35;;;;;;;0.30;0.00;;;;;;;43.76;16.91;100616.59;5073726;28;20131;-70
2021/06/23 11:18:20;;;;;;;0.00;0.00;;;;;;;41.79;18.56;100630.97;5056671;28;20056;-72
2021/06/23 11:20:55;;;;;;;0.00;0.00;;;;;;;43.09;17.48;100621.81;5052300;28;20563;-71
2021/06/23 11:23:59;;;;;;;0.00;0.00;;;;;;;42.54;17.83;100634.31;5077407;28;20608;-73
2021/06/23 11:26:28;;;;;;;0.00;0.00;;;;;;;39.89;20.62;100616.81;5071308;28;20075;-71
2021/06/23 11:28:57;;;;;;;0.00;0.00;;;;;;;40.54;20.06;100602.66;5036994;28;20072;-82
2021/06/23 11:31:59;;;;;;;0.00;0.00;;;;;;;41.26;19.41;100606.78;5073171;28;20437;-71
2021/06/23 11:34:39;;;;;;;0.00;0.00;;;;;;;41.76;18.90;100606.31;5058727;28;20143;-71
2021/06/23 11:37:10;;;;;;;0.00;0.00;;;;;;;41.50;19.22;100611.81;5061048;28;20061;-77
2021/06/23 11:39:36;;;;;;;0.00;0.00;;;;;;;40.45;20.19;100583.53;5020370;28;20044;-77
2021/06/23 11:42:03;;;;;;;0.00;0.00;;;;;;;39.77;20.80;100596.16;5053973;28;20198;-76
2021/06/23 11:44:30;;;;;;;0.00;0.00;;;;;;;39.93;20.29;100576.44;5032151;28;20064;-75
2021/06/23 11:47:03;;;;;;;0.10;0.00;;;;;;;40.07;20.45;100582.97;5032338;28;20040;-80
2021/06/23 11:49:30;;;;;;;0.00;0.00;;;;;;;40.83;19.82;100596.00;5034856;28;20421;-77
2021/06/23 11:52:01;;;;;;;0.00;0.00;;;;;;;40.27;20.87;100583.16;5015226;28;20123;-76
2021/06/23 11:54:26;;;;;;;0.00;0.00;;;;;;;40.58;20.88;100597.53;5045100;28;20084;-74
2021/06/23 11:56:53;;;;;;;0.00;0.00;;;;;;;40.24;20.62;100595.56;5025266;28;20053;-80
2021/06/23 11:59:19;;;;;;;0.00;0.00;;;;;;;40.61;20.04;100586.88;5019971;28;20048;-74
2021/06/23 12:01:51;;;;;;;0.03;0.00;;;;;;;40.42;20.72;100593.16;5015394;28;20040;-78
2021/06/23 12:04:17;;;;;;;0.00;0.00;;;;;;;40.67;20.08;100582.44;5019788;28;20060;-81
2021/06/23 12:06:43;;;;;;;0.00;0.00;;;;;;;40.52;21.02;100576.09;5048970;28;20036;-78
2021/06/23 12:09:09;;;;;;;0.00;0.00;;;;;;;39.36;21.04;100580.28;5051853;28;20052;-77
2021/06/23 12:11:35;;;;;;;0.00;0.00;;;;;;;39.53;21.13;100573.41;5018535;28;20709;-82
2021/06/23 12:14:05;;;;;;;0.00;0.00;;;;;;;39.26;21.84;100582.47;5001769;28;20044;-79
2021/06/23 12:16:33;;;;;;;0.00;0.00;;;;;;;39.59;21.76;100586.53;5036031;28;20097;-77
2021/06/23 12:18:58;;;;;;;0.00;0.00;;;;;;;38.70;22.10;100580.38;5034624;28;20041;-79
2021/06/23 12:21:24;;;;;;;0.00;0.00;;;;;;;39.24;21.74;100567.94;5045287;28;21679;-79
2021/06/23 12:23:50;;;;;;;0.00;0.00;;;;;;;39.92;21.44;100571.94;5051338;28;20041;-77
2021/06/23 12:26:22;;;;;;;0.00;0.00;;;;;;;40.16;20.78;100585.41;5035217;28;20044;-77
2021/06/23 12:28:50;;;;;;;0.00;0.00;;;;;;;40.34;20.49;100584.97;5034206;28;20513;-79
2021/06/23 12:31:16;;;;;;;0.00;0.00;;;;;;;39.26;21.66;100583.34;5047180;28;20041;-78
2021/06/23 12:33:46;;;;;;;0.00;0.00;;;;;;;39.29;21.38;100555.19;5035936;28;20429;-78
2021/06/23 12:36:14;;;;;;;0.00;0.00;;;;;;;39.59;21.73;100564.31;5007804;28;20051;-82
2021/06/23 12:38:40;;;;;;;0.00;0.00;;;;;;;38.49;22.59;100571.97;5068069;28;20397;-79
2021/06/23 12:41:06;;;;;;;0.00;0.00;;;;;;;38.66;22.33;100549.41;5071584;28;20417;-78
2021/06/23 12:43:32;;;;;;;0.00;0.00;;;;;;;38.39;23.52;100572.22;5072998;28;20554;-80
2021/06/23 12:45:58;;;;;;;0.00;0.00;;;;;;;38.01;23.23;100567.72;5064055;28;20135;-77
2021/06/23 12:48:23;;;;;;;0.00;0.00;;;;;;;37.59;24.07;100566.47;5066841;28;20048;-81
2021/06/23 12:50:50;;;;;;;0.00;0.00;;;;;;;37.83;24.12;100566.31;5070637;28;20160;-78
2021/06/23 12:53:16;;;;;;;0.00;0.00;;;;;;;37.38;24.36;100558.84;5075607;28;20079;-74
2021/06/23 12:55:42;;;;;;;0.35;0.00;;;;;;;37.88;23.89;100564.69;5070948;28;20083;-74
2021/06/23 12:58:08;;;;;;;0.00;0.00;;;;;;;37.60;24.36;100543.31;5073466;28;20044;-69
2021/06/23 13:00:34;;;;;;;0.10;0.00;;;;;;;37.40;24.38;100556.72;5070094;28;20051;-73
2021/06/23 13:03:01;;;;;;;0.00;0.00;;;;;;;37.64;24.65;100561.28;5065812;28;20043;-71
2021/06/23 13:05:27;;;;;;;0.00;0.00;;;;;;;38.01;24.31;100553.88;5073493;28;20221;-71
2021/06/23 13:07:52;;;;;;;0.10;0.00;;;;;;;37.68;24.70;100546.88;5074334;28;20377;-76
2021/06/23 13:10:19;;;;;;;0.00;0.00;;;;;;;38.02;25.31;100541.72;5071371;28;20134;-71
2021/06/23 13:12:47;;;;;;;0.00;0.00;;;;;;;37.39;25.39;100555.03;5052998;28;20045;-72
2021/06/23 13:15:17;;;;;;;0.00;0.00;;;;;;;36.50;25.84;100537.94;5073427;28;20052;-73
2021/06/23 13:17:43;;;;;;;0.00;0.00;;;;;;;36.84;26.31;100554.25;5072286;28;20049;-72
2021/06/23 13:20:10;;;;;;;0.00;0.00;;;;;;;37.13;25.60;100550.81;5064983;28;20052;-70
2021/06/23 13:22:36;;;;;;;0.00;0.00;;;;;;;36.46;26.49;100530.16;5049887;28;20132;-74
2021/06/23 13:25:03;;;;;;;0.00;0.00;;;;;;;36.49;26.89;100518.75;5065771;28;20134;-71
2021/06/23 13:27:29;;;;;;;0.00;0.00;;;;;;;36.82;26.99;100550.81;5071628;28;20109;-74
2021/06/23 13:29:55;;;;;;;0.00;0.00;;;;;;;37.00;26.11;100545.88;5072009;28;20044;-70
2021/06/23 13:32:21;;;;;;;0.00;0.00;;;;;;;37.05;26.19;100545.34;5053413;28;20485;-72
2021/06/23 13:34:47;;;;;;;0.10;0.00;;;;;;;37.00;26.38;100545.88;5071576;28;20402;-71
2021/06/23 13:37:13;;;;;;;0.00;0.00;;;;;;;37.12;26.51;100540.78;5059813;28;20056;-77
2021/06/23 13:39:39;;;;;;;0.00;0.00;;;;;;;37.08;26.55;100528.34;5050087;28;20057;-69
2021/06/23 13:42:10;;;;;;;0.00;0.00;;;;;;;37.09;26.41;100543.94;5035341;28;20080;-71
2021/06/23 13:44:36;;;;;;;;;;;;;;;36.81;27.14;100540.78;4998276;28;20045;-81
2021/06/23 13:47:05;;;;;;;0.00;0.00;;;;;;;36.51;27.80;100533.28;5053485;28;20299;-71
2021/06/23 13:49:34;;;;;;;0.00;0.00;;;;;;;36.51;27.13;100536.88;5020953;28;20527;-71
2021/06/23 13:52:00;;;;;;;0.05;0.00;;;;;;;36.94;26.42;100540.22;5051987;28;20036;-70
2021/06/23 13:54:26;;;;;;;0.10;0.00;;;;;;;36.84;26.51;100532.13;5045702;28;20037;-73
2021/06/23 13:56:53;;;;;;;0.00;0.00;;;;;;;36.56;27.34;100522.53;5019942;28;20041;-76
2021/06/23 13:59:19;;;;;;;0.00;0.00;;;;;;;36.52;27.30;100508.22;5056723;28;20066;-72
2021/06/23 14:01:45;;;;;;;0.00;0.00;;;;;;;36.11;28.11;100525.88;5053901;28;20132;-74
2021/06/23 14:04:11;;;;;;;0.00;0.00;;;;;;;36.02;28.73;100535.22;5037629;28;20424;-73
2021/06/23 14:06:37;;;;;;;0.00;0.00;;;;;;;35.91;28.51;100530.06;5052580;28;20041;-72
2021/06/23 14:09:03;;;;;;;0.00;0.00;;;;;;;35.96;29.04;100511.09;5044114;28;20740;-73
2021/06/23 14:11:29;;;;;;;0.00;0.00;;;;;;;35.70;29.85;100521.41;4993610;28;20076;-74
2021/06/23 14:13:56;;;;;;;0.00;0.00;;;;;;;35.64;29.58;100511.06;5050621;28;20083;-68
2021/06/23 14:16:22;;;;;;;0.00;0.00;;;;;;;35.45;29.92;100519.69;5009244;28;20056;-71
2021/06/23 14:18:47;;;;;;;0.00;0.00;;;;;;;35.26;29.62;100522.72;5049451;28;20041;-77
2021/06/23 14:21:13;;;;;;;0.00;0.00;;;;;;;35.07;29.85;100524.91;5046908;28;20041;-71
2021/06/23 14:23:39;;;;;;;0.30;0.00;;;;;;;35.09;30.20;100528.38;5046136;28;20045;-71
2021/06/23 14:26:06;;;;;;;0.00;0.00;;;;;;;35.58;29.82;100517.28;5019153;28;20055;-77
2021/06/23 14:28:35;;;;;;;0.05;0.00;;;;;;;35.42;30.61;100513.63;5009854;28;20050;-74
2021/06/23 14:31:02;;;;;;;0.03;0.00;;;;;;;35.40;29.80;100518.47;5028890;28;20535;-70
2021/06/23 14:33:28;;;;;;;0.03;0.00;;;;;;;35.62;30.92;100509.50;5053139;28;20066;-69
2021/06/23 14:35:55;;;;;;;0.00;0.00;;;;;;;35.34;30.90;100505.34;5023427;28;20052;-80
2021/06/23 14:38:24;;;;;;;0.00;0.00;;;;;;;35.49;31.63;100514.69;5021822;28;20072;-71
2021/06/23 14:40:50;;;;;;;0.00;0.00;;;;;;;35.12;30.54;100522.53;5012433;28;20183;-73
2021/06/23 14:43:17;;;;;;;0.00;0.00;;;;;;;35.04;31.54;100514.25;4962209;28;20148;-72
2021/06/23 14:45:43;;;;;;;0.00;0.00;;;;;;;35.10;31.37;100506.16;4992216;28;20049;-68
2021/06/23 14:48:09;;;;;;;0.03;0.00;;;;;;;34.93;31.50;100492.50;5026213;28;20500;-72
2021/06/23 14:50:34;;;;;;;0.00;0.00;;;;;;;34.81;31.32;100500.22;5010171;28;20041;-71
2021/06/23 14:53:01;;;;;;;0.00;0.00;;;;;;;34.84;31.42;100501.78;5028365;28;20381;-77
2021/06/23 14:55:27;;;;;;;0.00;0.00;;;;;;;34.60;31.04;100501.66;5028604;28;20507;-71
2021/06/23 14:57:54;;;;;;;0.00;0.00;;;;;;;34.32;32.09;100491.88;5053033;28;20048;-69
2021/06/23 15:00:22;;;;;;;0.00;0.00;;;;;;;34.29;31.86;100487.50;5026763;28;20053;-70
2021/06/23 15:02:47;;;;;;;0.10;0.00;;;;;;;34.40;31.58;100505.69;4991998;28;20049;-71
2021/06/23 15:05:13;;;;;;;0.00;0.00;;;;;;;34.48;32.19;100500.22;5007906;28;20442;-73
2021/06/23 15:07:39;;;;;;;0.00;0.00;;;;;;;34.65;32.90;100499.25;5042535;28;20049;-72
2021/06/23 15:10:08;;;;;;;0.10;0.00;;;;;;;34.46;33.40;100496.75;5022759;28;20091;-73
2021/06/23 15:12:37;;;;;;;0.00;0.00;;;;;;;34.40;33.60;100501.03;5009978;28;20151;-71
2021/06/23 15:15:05;;;;;;;0.00;0.00;;;;;;;34.35;34.12;100491.53;5016638;28;20045;-72
2021/06/23 15:17:32;;;;;;;0.00;0.00;;;;;;;34.18;33.65;100474.03;5009381;28;20524;-74
2021/06/23 15:19:58;;;;;;;0.00;0.00;;;;;;;33.97;32.20;100494.72;5007697;28;20045;-76
2021/06/23 15:22:24;;;;;;;0.00;0.00;;;;;;;34.02;33.65;100501.47;5010108;28;20456;-76
2021/06/23 15:24:50;;;;;;;0.10;0.00;;;;;;;33.99;33.70;100495.41;5022991;28;20044;-72
2021/06/23 15:27:19;;;;;;;0.00;0.00;;;;;;;33.97;34.01;100498.31;5027677;28;20435;-76
2021/06/23 15:29:46;;;;;;;0.10;0.00;;;;;;;33.83;32.95;100490.66;5026396;28;20296;-71
2021/06/23 15:32:15;;;;;;;0.10;0.00;;;;;;;34.04;34.02;100484.78;5000812;28;20133;-76